Time;durP1;ratioP1;P1;durP2;ratioP2;P2;SDS_P1;SDS_P2;PMS_P1;PMS_P2;Temp;Humidity;BMP_temperature;BMP_pressure;BME280_temperature;BME280_humidity;BME280_pressure;Samples;Min_cycle;Max_cycle;Signal;HPM_P1;HPM_P2
2023/05/31 00:00:45;;;;;;;29.87;28.37;;;;;;;;;;5042573;28;20029;-62
2023/05/31 00:03:10;;;;;;;37.23;35.00;;;;;;;;;;5040995;28;20302;-62
2023/05/31 00:05:36;;;;;;;30.63;29.03;;;;;;;;;;5042153;28;20511;-62
2023/05/31 00:08:01;;;;;;;28.60;27.20;;;;;;;;;;5011468;28;20061;-61
2023/05/31 00:10:27;;;;;;;29.57;27.93;;;;;;;;;;5002735;28;20300;-62
2023/05/31 00:12:52;;;;;;;27.70;26.20;;;;;;;;;;5001882;28;20120;-61
2023/05/31 00:15:18;;;;;;;27.97;26.53;;;;;;;;;;5002778;28;20081;-63
2023/05/31 00:17:43;;;;;;;33.07;31.07;;;;;;;;;;5006980;28;20044;-61
2023/05/31 00:20:09;;;;;;;31.53;29.77;;;;;;;;;;5001224;28;20488;-62
2023/05/31 00:22:34;;;;;;;30.53;28.90;;;;;;;;;;5002944;28;20440;-62
2023/05/31 00:24:59;;;;;;;30.17;28.50;;;;;;;;;;5000772;28;20049;-62
2023/05/31 00:27:25;;;;;;;31.67;30.00;;;;;;;;;;5000975;28;20579;-62
2023/05/31 00:29:50;;;;;;;30.77;29.13;;;;;;;;;;5000085;28;20041;-62
2023/05/31 00:32:16;;;;;;;31.20;29.50;;;;;;;;;;5001972;28;20061;-62
2023/05/31 00:34:42;;;;;;;31.77;30.03;;;;;;;;;;5001872;28;20044;-62
2023/05/31 00:37:07;;;;;;;31.40;29.80;;;;;;;;;;5002894;28;20030;-61
2023/05/31 00:39:33;;;;;;;28.17;26.70;;;;;;;;;;5001610;28;20038;-61
2023/05/31 00:41:58;;;;;;;26.90;25.47;;;;;;;;;;4976765;28;20473;-61
2023/05/31 00:44:24;;;;;;;29.13;27.67;;;;;;;;;;4999861;28;20022;-62
2023/05/31 00:46:50;;;;;;;28.30;26.90;;;;;;;;;;5002370;28;20060;-63
2023/05/31 00:49:15;;;;;;;30.40;28.77;;;;;;;;;;5001300;28;20540;-61
2023/05/31 00:51:41;;;;;;;32.67;30.97;;;;;;;;;;5001263;28;20283;-62
2023/05/31 00:54:07;;;;;;;27.53;26.07;;;;;;;;;;5000721;28;20053;-63
2023/05/31 00:56:33;;;;;;;24.93;23.60;;;;;;;;;;5002625;28;20069;-62
2023/05/31 00:58:59;;;;;;;28.53;26.90;;;;;;;;;;5001685;28;20469;-62
2023/05/31 01:01:26;;;;;;;30.93;29.27;;;;;;;;;;5017514;28;20076;-61
2023/05/31 01:03:56;;;;;;;27.63;26.27;;;;;;;;;;5001657;28;21213;-61
2023/05/31 01:06:23;;;;;;;25.40;24.13;;;;;;;;;;5001001;28;20899;-62
2023/05/31 01:08:51;;;;;;;27.60;26.23;;;;;;;;;;5033555;28;20291;-62
2023/05/31 01:11:38;;;;;;;24.40;23.10;;;;;;;;;;5041762;28;20606;-61
2023/05/31 01:14:35;;;;;;;25.87;24.47;;;;;;;;;;5038204;28;20291;-61
2023/05/31 01:17:08;;;;;;;27.23;25.87;;;;;;;;;;5007157;28;20311;-63
2023/05/31 01:19:51;;;;;;;25.77;24.40;;;;;;;;;;5020081;28;20275;-61
2023/05/31 01:22:20;;;;;;;24.93;23.67;;;;;;;;;;5029217;28;20295;-62
2023/05/31 01:24:57;;;;;;;24.93;23.67;;;;;;;;;;5022043;28;20315;-61
2023/05/31 01:27:23;;;;;;;28.37;26.97;;;;;;;;;;5039985;28;20651;-62
2023/05/31 01:29:50;;;;;;;25.43;24.20;;;;;;;;;;5019901;28;20298;-61
2023/05/31 01:32:18;;;;;;;27.40;25.93;;;;;;;;;;5038509;28;20045;-62
2023/05/31 01:34:45;;;;;;;26.13;24.83;;;;;;;;;;5054786;28;20651;-62
2023/05/31 01:37:10;;;;;;;26.30;25.00;;;;;;;;;;5022963;28;20267;-63
2023/05/31 01:39:36;;;;;;;25.27;24.13;;;;;;;;;;5021978;28;20284;-63
2023/05/31 01:42:02;;;;;;;26.43;25.20;;;;;;;;;;5021124;28;20037;-63
2023/05/31 01:44:31;;;;;;;31.47;29.87;;;;;;;;;;5020608;28;20033;-62
2023/05/31 01:46:57;;;;;;;26.10;24.80;;;;;;;;;;5022575;28;20565;-62
2023/05/31 01:49:23;;;;;;;30.07;28.43;;;;;;;;;;5011762;28;20767;-62
2023/05/31 01:51:49;;;;;;;25.63;24.30;;;;;;;;;;5020768;28;20287;-62
2023/05/31 01:54:15;;;;;;;26.53;25.03;;;;;;;;;;5021340;28;20408;-62
2023/05/31 01:56:41;;;;;;;27.93;26.50;;;;;;;;;;5010499;28;20380;-62
2023/05/31 01:59:07;;;;;;;29.47;27.97;;;;;;;;;;5054979;28;20059;-61
2023/05/31 02:01:34;;;;;;;29.50;27.97;;;;;;;;;;5037763;28;20267;-61
2023/05/31 02:03:59;;;;;;;27.77;26.23;;;;;;;;;;5021787;28;20540;-62
2023/05/31 02:06:27;;;;;;;30.53;28.90;;;;;;;;;;5035594;28;21071;-61
2023/05/31 02:08:53;;;;;;;29.47;27.90;;;;;;;;;;5022311;28;20057;-63
2023/05/31 02:11:18;;;;;;;28.03;26.47;;;;;;;;;;5012483;28;20283;-63
2023/05/31 02:13:44;;;;;;;26.53;25.03;;;;;;;;;;5038686;28;20572;-62
2023/05/31 02:16:09;;;;;;;30.93;29.33;;;;;;;;;;5036735;28;20056;-62
2023/05/31 02:18:35;;;;;;;29.90;28.20;;;;;;;;;;5035650;28;20652;-62
2023/05/31 02:21:00;;;;;;;25.83;24.43;;;;;;;;;;5021778;28;20408;-64
2023/05/31 02:23:26;;;;;;;28.67;27.13;;;;;;;;;;5021629;28;20092;-62
2023/05/31 02:25:51;;;;;;;23.33;21.97;;;;;;;;;;5020558;28;20387;-62
2023/05/31 02:28:17;;;;;;;27.27;25.87;;;;;;;;;;5039964;28;20587;-61
2023/05/31 02:30:59;;;;;;;22.13;20.90;;;;;;;;;;5021018;28;20791;-62
2023/05/31 02:33:25;;;;;;;30.07;28.30;;;;;;;;;;5039473;28;20514;-61
2023/05/31 02:35:52;;;;;;;24.07;22.80;;;;;;;;;;5039644;28;20863;-62
2023/05/31 02:38:19;;;;;;;25.03;23.53;;;;;;;;;;5021721;28;20337;-61
2023/05/31 02:40:44;;;;;;;20.63;19.57;;;;;;;;;;5039111;28;20323;-62
2023/05/31 02:43:10;;;;;;;24.23;22.87;;;;;;;;;;5040091;28;20275;-64
2023/05/31 02:45:37;;;;;;;20.10;19.07;;;;;;;;;;5010789;28;20120;-63
2023/05/31 02:48:05;;;;;;;23.43;21.63;;;;;;;;;;5021336;28;20635;-62
2023/05/31 02:50:31;;;;;;;23.93;22.70;;;;;;;;;;5011897;28;20068;-61
2023/05/31 02:52:57;;;;;;;24.93;23.73;;;;;;;;;;5020186;28;20302;-62
2023/05/31 02:55:43;;;;;;;29.97;28.40;;;;;;;;;;5019268;28;20292;-62
2023/05/31 02:58:18;;;;;;;29.17;27.38;;;;;;;;;;5040303;28;20350;-62
2023/05/31 03:00:56;;;;;;;26.50;25.17;;;;;;;;;;5020882;28;20043;-62
2023/05/31 03:03:22;;;;;;;29.47;27.70;;;;;;;;;;5054301;28;20454;-62
2023/05/31 03:05:59;;;;;;;27.73;26.50;;;;;;;;;;5021785;28;20291;-61
2023/05/31 03:08:24;;;;;;;27.93;26.43;;;;;;;;;;5010698;28;20059;-63
2023/05/31 03:10:50;;;;;;;22.77;21.70;;;;;;;;;;5020683;28;20653;-63
2023/05/31 03:13:16;;;;;;;25.63;24.23;;;;;;;;;;5038924;28;20314;-63
2023/05/31 03:15:41;;;;;;;22.47;21.30;;;;;;;;;;5039433;28;20041;-62
2023/05/31 03:18:07;;;;;;;27.27;25.67;;;;;;;;;;5020086;28;20427;-63
2023/05/31 03:20:34;;;;;;;26.77;25.43;;;;;;;;;;5020736;28;20372;-63
2023/05/31 03:23:01;;;;;;;25.03;23.70;;;;;;;;;;5020703;28;20306;-63
2023/05/31 03:25:27;;;;;;;26.67;25.20;;;;;;;;;;5020256;28;20692;-65
2023/05/31 03:27:52;;;;;;;21.00;19.63;;;;;;;;;;5039174;28;20129;-65
2023/05/31 03:30:17;;;;;;;29.33;27.80;;;;;;;;;;5018136;28;20060;-63
2023/05/31 03:32:50;;;;;;;22.53;21.47;;;;;;;;;;5015084;28;20049;-63
2023/05/31 03:35:16;;;;;;;29.10;27.40;;;;;;;;;;5036085;28;20291;-63
2023/05/31 03:37:42;;;;;;;49.43;47.17;;;;;;;;;;5022378;28;20329;-66
2023/05/31 03:40:10;;;;;;;26.40;24.90;;;;;;;;;;5030817;28;20581;-62
2023/05/31 03:42:37;;;;;;;22.70;21.50;;;;;;;;;;5021030;28;20370;-64
2023/05/31 03:45:03;;;;;;;25.47;23.77;;;;;;;;;;5037127;28;20531;-63
2023/05/31 03:47:28;;;;;;;26.30;24.53;;;;;;;;;;5022764;28;20649;-64
2023/05/31 03:49:54;;;;;;;24.57;23.13;;;;;;;;;;5013202;28;20037;-64
2023/05/31 03:52:20;;;;;;;26.20;24.83;;;;;;;;;;5025385;28;20155;-64
2023/05/31 03:54:46;;;;;;;24.57;23.23;;;;;;;;;;5043056;28;20119;-63
2023/05/31 03:57:14;;;;;;;26.50;25.27;;;;;;;;;;5042039;28;20537;-63
2023/05/31 03:59:39;;;;;;;28.27;26.87;;;;;;;;;;5023271;28;20267;-64
2023/05/31 04:02:05;;;;;;;24.50;23.33;;;;;;;;;;5024502;28;20513;-64
2023/05/31 04:04:30;;;;;;;26.77;25.27;;;;;;;;;;5024553;28;20044;-64
2023/05/31 04:06:56;;;;;;;41.70;39.70;;;;;;;;;;5021684;28;20484;-64
2023/05/31 04:09:23;;;;;;;23.63;22.47;;;;;;;;;;5022487;28;20374;-64
2023/05/31 04:11:49;;;;;;;40.87;39.03;;;;;;;;;;5023678;28;20484;-64
2023/05/31 04:14:15;;;;;;;31.60;29.80;;;;;;;;;;5022278;28;20294;-63
2023/05/31 04:16:40;;;;;;;26.50;25.10;;;;;;;;;;5022920;28;20025;-64
2023/05/31 04:19:06;;;;;;;25.70;24.43;;;;;;;;;;5023342;28;20590;-64
2023/05/31 04:21:33;;;;;;;27.17;25.77;;;;;;;;;;5021077;28;20124;-63
2023/05/31 04:23:59;;;;;;;25.83;24.57;;;;;;;;;;5030574;28;20281;-63
2023/05/31 04:26:25;;;;;;;35.33;33.60;;;;;;;;;;5021455;28;20855;-63
2023/05/31 04:28:53;;;;;;;25.07;23.87;;;;;;;;;;5023539;28;20045;-63
2023/05/31 04:31:24;;;;;;;29.23;27.67;;;;;;;;;;5022698;28;20389;-63
2023/05/31 04:34:00;;;;;;;26.90;25.57;;;;;;;;;;5008221;28;20314;-63
2023/05/31 04:36:26;;;;;;;28.77;27.33;;;;;;;;;;5022880;28;20723;-63
2023/05/31 04:38:54;;;;;;;30.13;28.60;;;;;;;;;;5023557;28;20366;-64
2023/05/31 04:41:25;;;;;;;31.03;29.37;;;;;;;;;;5023547;28;20576;-63
2023/05/31 04:43:52;;;;;;;33.27;31.33;;;;;;;;;;5013732;28;20290;-64
2023/05/31 04:46:19;;;;;;;32.07;30.37;;;;;;;;;;5029661;28;20331;-64
2023/05/31 04:48:47;;;;;;;28.13;26.70;;;;;;;;;;5028956;28;20283;-64
2023/05/31 04:51:13;;;;;;;30.10;28.53;;;;;;;;;;5020136;28;20283;-63
2023/05/31 04:53:39;;;;;;;33.97;32.03;;;;;;;;;;5023588;28;20633;-62
2023/05/31 04:56:07;;;;;;;30.37;28.77;;;;;;;;;;5039684;28;20781;-61
2023/05/31 04:58:33;;;;;;;34.03;32.10;;;;;;;;;;5037981;28;20276;-62
2023/05/31 05:01:02;;;;;;;35.50;33.43;;;;;;;;;;5022814;28;20283;-61
2023/05/31 05:03:39;;;;;;;32.03;30.23;;;;;;;;;;5022614;28;20135;-61
2023/05/31 05:06:15;;;;;;;30.03;28.37;;;;;;;;;;5037567;28;20649;-63
2023/05/31 05:08:45;;;;;;;31.10;29.47;;;;;;;;;;5002144;28;20740;-63
2023/05/31 05:11:11;;;;;;;39.93;37.37;;;;;;;;;;4998318;28;20307;-63
2023/05/31 05:13:36;;;;;;;33.43;31.40;;;;;;;;;;5002318;28;20780;-63
2023/05/31 05:16:05;;;;;;;37.10;34.83;;;;;;;;;;5007533;28;20232;-63
2023/05/31 05:18:30;;;;;;;33.03;31.13;;;;;;;;;;4990102;28;20316;-63
2023/05/31 05:20:56;;;;;;;31.80;30.00;;;;;;;;;;4989490;28;20300;-62
2023/05/31 05:23:25;;;;;;;33.97;31.97;;;;;;;;;;4989036;28;20029;-63
2023/05/31 05:25:52;;;;;;;35.60;33.47;;;;;;;;;;5001382;28;20304;-63
2023/05/31 05:28:18;;;;;;;33.63;31.77;;;;;;;;;;5000993;28;20322;-63
2023/05/31 05:30:44;;;;;;;34.57;32.73;;;;;;;;;;4999033;28;20034;-63
2023/05/31 05:33:10;;;;;;;32.47;30.73;;;;;;;;;;5000574;28;20599;-63
2023/05/31 05:35:36;;;;;;;37.37;35.23;;;;;;;;;;5000906;28;20388;-60
2023/05/31 05:38:02;;;;;;;27.83;26.30;;;;;;;;;;5002198;28;20709;-64
2023/05/31 05:40:27;;;;;;;33.17;31.43;;;;;;;;;;5001947;28;20033;-63
2023/05/31 05:42:53;;;;;;;35.53;33.63;;;;;;;;;;5001623;28;20128;-63
2023/05/31 05:45:19;;;;;;;33.93;32.03;;;;;;;;;;4999871;28;20036;-63
2023/05/31 05:47:45;;;;;;;32.50;30.80;;;;;;;;;;4999948;28;20285;-63
2023/05/31 05:50:11;;;;;;;33.80;32.13;;;;;;;;;;4998073;28;20324;-64
2023/05/31 05:52:38;;;;;;;44.20;41.83;;;;;;;;;;4998018;28;21292;-63
2023/05/31 05:55:06;;;;;;;40.13;37.73;;;;;;;;;;5015227;28;20068;-63
2023/05/31 05:57:32;;;;;;;35.43;33.50;;;;;;;;;;4997551;28;20281;-63
2023/05/31 06:00:11;;;;;;;38.10;36.10;;;;;;;;;;4984099;28;20041;-64
2023/05/31 06:02:38;;;;;;;36.00;34.03;;;;;;;;;;4999569;28;20284;-64
2023/05/31 06:05:04;;;;;;;32.10;30.40;;;;;;;;;;4999989;28;20789;-63
2023/05/31 06:07:30;;;;;;;33.93;32.13;;;;;;;;;;5004488;28;20058;-61
2023/05/31 06:09:56;;;;;;;33.47;31.73;;;;;;;;;;5021022;28;20071;-62
2023/05/31 06:12:21;;;;;;;33.20;31.40;;;;;;;;;;5019188;28;20415;-63
2023/05/31 06:14:48;;;;;;;33.43;31.63;;;;;;;;;;5021353;28;20341;-63
2023/05/31 06:17:15;;;;;;;35.90;33.93;;;;;;;;;;5021736;28;20322;-62
2023/05/31 06:19:40;;;;;;;35.83;33.87;;;;;;;;;;5022625;28;20320;-62
2023/05/31 06:22:06;;;;;;;33.37;31.60;;;;;;;;;;5021360;28;20041;-61
2023/05/31 06:24:32;;;;;;;35.97;34.13;;;;;;;;;;5017506;28;20749;-63
2023/05/31 06:26:57;;;;;;;39.53;37.40;;;;;;;;;;5019881;28;20167;-63
2023/05/31 06:29:28;;;;;;;36.17;34.30;;;;;;;;;;5020746;28;20029;-62
2023/05/31 06:31:53;;;;;;;35.80;33.90;;;;;;;;;;5020199;28;20280;-63
2023/05/31 06:34:19;;;;;;;35.13;33.20;;;;;;;;;;5017797;28;20026;-63
2023/05/31 06:36:45;;;;;;;33.13;31.37;;;;;;;;;;5019514;28;20299;-61
2023/05/31 06:39:11;;;;;;;35.00;33.23;;;;;;;;;;5020348;28;20064;-62
2023/05/31 06:41:37;;;;;;;32.63;30.87;;;;;;;;;;5019334;28;20026;-64
2023/05/31 06:44:20;;;;;;;35.67;33.53;;;;;;;;;;5019536;28;20323;-65
2023/05/31 06:46:56;;;;;;;34.10;32.17;;;;;;;;;;5017548;28;20366;-64
2023/05/31 06:49:24;;;;;;;35.37;33.37;;;;;;;;;;5019117;28;20271;-64
2023/05/31 06:52:12;;;;;;;34.73;32.80;;;;;;;;;;5016636;28;20944;-64
2023/05/31 06:55:10;;;;;;;32.57;30.90;;;;;;;;;;4998378;28;20276;-63
2023/05/31 06:57:37;;;;;;;31.63;30.03;;;;;;;;;;5025281;28;20288;-65
2023/05/31 07:00:03;;;;;;;33.87;31.90;;;;;;;;;;5017762;28;20346;-63
2023/05/31 07:02:29;;;;;;;32.07;30.43;;;;;;;;;;5021025;28;20132;-63
2023/05/31 07:04:55;;;;;;;33.07;31.20;;;;;;;;;;5018428;28;20276;-63
2023/05/31 07:07:20;;;;;;;32.30;30.53;;;;;;;;;;5035068;28;20388;-64
2023/05/31 07:09:46;;;;;;;34.10;32.30;;;;;;;;;;5019027;28;20038;-63
2023/05/31 07:12:11;;;;;;;31.93;30.17;;;;;;;;;;5022132;28;20041;-63
2023/05/31 07:14:39;;;;;;;32.77;30.97;;;;;;;;;;5021238;28;20102;-64
2023/05/31 07:17:04;;;;;;;33.33;31.43;;;;;;;;;;5021490;28;20252;-63
2023/05/31 07:19:30;;;;;;;37.03;34.90;;;;;;;;;;5022795;28;20635;-63
2023/05/31 07:21:55;;;;;;;32.20;30.50;;;;;;;;;;5023146;28;20026;-63
2023/05/31 07:24:21;;;;;;;32.80;31.03;;;;;;;;;;5022012;28;20037;-66
2023/05/31 07:26:46;;;;;;;33.40;31.57;;;;;;;;;;5022710;28;20042;-64
2023/05/31 07:29:12;;;;;;;31.87;30.10;;;;;;;;;;5023715;28;20046;-63
2023/05/31 07:31:37;;;;;;;42.73;40.20;;;;;;;;;;5020585;28;20120;-64
2023/05/31 07:34:03;;;;;;;33.83;32.03;;;;;;;;;;5021950;28;20049;-64
2023/05/31 07:36:28;;;;;;;35.17;33.30;;;;;;;;;;5022439;28;20472;-66
2023/05/31 07:38:54;;;;;;;37.17;35.17;;;;;;;;;;5022294;28;20410;-64
2023/05/31 07:41:20;;;;;;;35.33;33.43;;;;;;;;;;5023729;28;20029;-64
2023/05/31 07:43:46;;;;;;;34.53;32.73;;;;;;;;;;5022590;28;20037;-64
2023/05/31 07:46:11;;;;;;;31.73;29.97;;;;;;;;;;5023084;28;20095;-62
2023/05/31 07:48:37;;;;;;;32.50;30.80;;;;;;;;;;5023006;28;20043;-65
2023/05/31 07:51:03;;;;;;;33.50;31.67;;;;;;;;;;5022110;28;20125;-63
2023/05/31 07:53:28;;;;;;;32.17;30.47;;;;;;;;;;5023004;28;20135;-64
2023/05/31 07:55:53;;;;;;;34.13;32.33;;;;;;;;;;5022874;28;20116;-64
2023/05/31 07:58:19;;;;;;;36.33;34.17;;;;;;;;;;5023330;28;20829;-63
2023/05/31 08:00:45;;;;;;;32.63;30.83;;;;;;;;;;5021754;28;20693;-64
2023/05/31 08:03:10;;;;;;;37.43;35.33;;;;;;;;;;5022904;28;20049;-66
2023/05/31 08:05:36;;;;;;;33.20;31.40;;;;;;;;;;5023073;28;20412;-62
2023/05/31 08:08:03;;;;;;;33.93;32.07;;;;;;;;;;5033319;28;20060;-64
2023/05/31 08:10:29;;;;;;;34.33;32.47;;;;;;;;;;5042828;28;20047;-62
2023/05/31 08:12:55;;;;;;;33.50;31.63;;;;;;;;;;5043318;28;20072;-63
2023/05/31 08:15:21;;;;;;;34.93;33.07;;;;;;;;;;5042866;28;20061;-63
2023/05/31 08:17:47;;;;;;;34.30;32.37;;;;;;;;;;5040633;28;20144;-62
2023/05/31 08:20:15;;;;;;;37.77;35.47;;;;;;;;;;5041902;28;20045;-63
2023/05/31 08:22:44;;;;;;;31.53;29.87;;;;;;;;;;5023847;28;20098;-63
2023/05/31 08:25:12;;;;;;;31.90;30.23;;;;;;;;;;5041511;28;20083;-62
2023/05/31 08:27:39;;;;;;;36.13;34.03;;;;;;;;;;5022456;28;20137;-63
2023/05/31 08:30:06;;;;;;;40.30;38.00;;;;;;;;;;5017473;28;20090;-63
2023/05/31 08:32:31;;;;;;;36.83;34.97;;;;;;;;;;5036455;28;20048;-61
2023/05/31 08:34:57;;;;;;;35.30;33.57;;;;;;;;;;5042104;28;20029;-60
2023/05/31 08:37:22;;;;;;;36.40;34.57;;;;;;;;;;5040250;28;20480;-60
2023/05/31 08:39:47;;;;;;;38.77;36.67;;;;;;;;;;5040528;28;20041;-60
2023/05/31 08:42:24;;;;;;;39.13;36.67;;;;;;;;;;5041430;28;20280;-62
2023/05/31 08:44:50;;;;;;;37.80;35.80;;;;;;;;;;5040640;28;20033;-61
2023/05/31 08:47:32;;;;;;;42.43;40.07;;;;;;;;;;5020667;28;20329;-62
2023/05/31 08:49:58;;;;;;;35.97;34.03;;;;;;;;;;5041207;28;20144;-61
2023/05/31 08:52:24;;;;;;;35.73;33.73;;;;;;;;;;5040855;28;20068;-61
2023/05/31 08:54:50;;;;;;;41.13;38.90;;;;;;;;;;5012612;28;20155;-61
2023/05/31 08:57:16;;;;;;;35.93;34.03;;;;;;;;;;5042179;28;20040;-60
2023/05/31 08:59:43;;;;;;;40.97;38.77;;;;;;;;;;5041056;28;20036;-62
2023/05/31 09:02:08;;;;;;;37.47;35.57;;;;;;;;;;5042221;28;20080;-61
2023/05/31 09:04:34;;;;;;;47.70;44.87;;;;;;;;;;5039716;28;20488;-61
2023/05/31 09:07:01;;;;;;;37.77;35.83;;;;;;;;;;5011259;28;20970;-64
2023/05/31 09:09:27;;;;;;;42.17;39.77;;;;;;;;;;5021760;28;20530;-63
2023/05/31 09:11:53;;;;;;;33.67;31.90;;;;;;;;;;5042269;28;20041;-61
2023/05/31 09:14:18;;;;;;;41.87;39.40;;;;;;;;;;5021420;28;20483;-62
2023/05/31 09:16:44;;;;;;;35.63;33.70;;;;;;;;;;5041763;28;20041;-63
2023/05/31 09:19:09;;;;;;;36.87;34.87;;;;;;;;;;5042044;28;20021;-63
2023/05/31 09:21:39;;;;;;;37.37;35.27;;;;;;;;;;5022325;28;20111;-63
2023/05/31 09:24:05;;;;;;;38.90;36.90;;;;;;;;;;5040576;28;20072;-64
2023/05/31 09:26:32;;;;;;;35.27;33.30;;;;;;;;;;5040862;28;20147;-64
2023/05/31 09:28:58;;;;;;;37.33;35.27;;;;;;;;;;5040667;28;20468;-63
2023/05/31 09:31:23;;;;;;;35.53;33.67;;;;;;;;;;5040028;28;20040;-63
2023/05/31 09:33:51;;;;;;;35.87;33.90;;;;;;;;;;5040934;28;20597;-63
2023/05/31 09:36:23;;;;;;;36.80;34.80;;;;;;;;;;5040043;28;20041;-63
2023/05/31 09:38:50;;;;;;;39.60;37.43;;;;;;;;;;5040146;28;20463;-63
2023/05/31 09:41:18;;;;;;;36.63;34.67;;;;;;;;;;5041129;28;20220;-63
2023/05/31 09:43:44;;;;;;;39.20;37.17;;;;;;;;;;5040748;28;20040;-65
2023/05/31 09:46:13;;;;;;;39.10;36.97;;;;;;;;;;5040898;28;20037;-63
2023/05/31 09:48:39;;;;;;;37.77;35.57;;;;;;;;;;5056034;28;20052;-66
2023/05/31 09:51:11;;;;;;;35.20;33.20;;;;;;;;;;5039982;28;20048;-70
2023/05/31 09:53:40;;;;;;;40.23;38.17;;;;;;;;;;5040048;28;20041;-62
2023/05/31 09:56:10;;;;;;;42.90;40.57;;;;;;;;;;5019983;28;20032;-62
2023/05/31 09:58:36;;;;;;;41.67;39.53;;;;;;;;;;5036779;28;20039;-61
2023/05/31 10:01:02;;;;;;;45.30;42.53;;;;;;;;;;5038722;28;20041;-61
2023/05/31 10:03:28;;;;;;;45.03;42.57;;;;;;;;;;5036655;28;20452;-61
2023/05/31 10:05:53;;;;;;;41.47;39.27;;;;;;;;;;5037546;28;20036;-61
2023/05/31 10:08:20;;;;;;;41.63;39.30;;;;;;;;;;5040497;28;20112;-61
2023/05/31 10:10:45;;;;;;;39.90;37.77;;;;;;;;;;5039327;28;20416;-62
2023/05/31 10:13:11;;;;;;;44.87;42.37;;;;;;;;;;5039764;28;20168;-63
2023/05/31 10:15:37;;;;;;;40.73;38.60;;;;;;;;;;5040656;28;20029;-63
2023/05/31 10:18:06;;;;;;;38.80;36.67;;;;;;;;;;5021121;28;21057;-63
2023/05/31 10:20:51;;;;;;;40.40;38.30;;;;;;;;;;5040051;28;20503;-62
2023/05/31 10:23:20;;;;;;;41.33;39.10;;;;;;;;;;5041729;28;20154;-63
2023/05/31 10:26:06;;;;;;;42.53;39.93;;;;;;;;;;5038570;28;20333;-70
2023/05/31 10:28:37;;;;;;;41.60;39.17;;;;;;;;;;5037740;28;20049;-66
2023/05/31 10:31:03;;;;;;;36.40;34.50;;;;;;;;;;5022034;28;20504;-60
2023/05/31 10:33:30;;;;;;;40.30;38.13;;;;;;;;;;5025971;28;20607;-63
2023/05/31 10:35:58;;;;;;;37.30;35.20;;;;;;;;;;5039962;28;20033;-63
2023/05/31 10:38:27;;;;;;;39.97;37.83;;;;;;;;;;5040206;28;20479;-62
2023/05/31 10:40:54;;;;;;;40.73;38.47;;;;;;;;;;5038163;28;20033;-63
2023/05/31 10:43:20;;;;;;;45.83;43.17;;;;;;;;;;5040143;28;20048;-63
2023/05/31 10:45:48;;;;;;;42.30;39.93;;;;;;;;;;5038888;28;20043;-63
2023/05/31 10:48:22;;;;;;;52.27;49.60;;;;;;;;;;5043275;28;20037;-63
2023/05/31 10:50:52;;;;;;;91.35;87.35;;;;;;;;;;5043771;28;20119;-63
2023/05/31 10:53:17;;;;;;;77.90;74.50;;;;;;;;;;5044601;28;20049;-63
2023/05/31 10:55:43;;;;;;;41.73;39.43;;;;;;;;;;5044282;28;20791;-63
2023/05/31 10:58:27;;;;;;;41.10;38.83;;;;;;;;;;5044361;28;20052;-63
2023/05/31 11:00:55;;;;;;;43.57;41.23;;;;;;;;;;5041986;28;20029;-63
2023/05/31 11:03:21;;;;;;;43.80;41.30;;;;;;;;;;5043885;28;20071;-61
2023/05/31 11:05:59;;;;;;;39.90;37.77;;;;;;;;;;5042560;28;20037;-62
2023/05/31 11:08:25;;;;;;;40.43;38.23;;;;;;;;;;5043237;28;20049;-61
2023/05/31 11:10:51;;;;;;;41.90;39.67;;;;;;;;;;5041196;28;20308;-62
2023/05/31 11:13:16;;;;;;;39.40;37.33;;;;;;;;;;5044628;28;20075;-62
2023/05/31 11:15:43;;;;;;;41.20;38.97;;;;;;;;;;5042380;28;20530;-62
2023/05/31 11:18:09;;;;;;;39.93;37.77;;;;;;;;;;5044341;28;20399;-62
2023/05/31 11:20:36;;;;;;;38.30;36.40;;;;;;;;;;5043886;28;20458;-62
2023/05/31 11:23:16;;;;;;;46.03;43.03;;;;;;;;;;5043687;28;20577;-63
2023/05/31 11:25:42;;;;;;;46.23;43.50;;;;;;;;;;5044372;28;20033;-70
2023/05/31 11:28:07;;;;;;;41.70;39.17;;;;;;;;;;5043854;28;20477;-69
2023/05/31 11:30:37;;;;;;;39.30;36.97;;;;;;;;;;5014822;28;20056;-65
2023/05/31 11:33:03;;;;;;;42.83;40.27;;;;;;;;;;5039618;28;20033;-64
2023/05/31 11:35:32;;;;;;;40.50;38.33;;;;;;;;;;5058051;28;20395;-64
2023/05/31 11:38:01;;;;;;;41.93;39.53;;;;;;;;;;5043210;28;20060;-65
2023/05/31 11:40:28;;;;;;;49.70;46.73;;;;;;;;;;5042100;28;20434;-64
2023/05/31 11:42:55;;;;;;;37.47;35.40;;;;;;;;;;5043353;28;20072;-65
2023/05/31 11:45:22;;;;;;;40.17;37.97;;;;;;;;;;5041471;28;20499;-64
2023/05/31 11:47:47;;;;;;;39.47;37.37;;;;;;;;;;5042885;28;20040;-64
2023/05/31 11:50:16;;;;;;;40.27;38.17;;;;;;;;;;5043306;28;20033;-63
2023/05/31 11:52:41;;;;;;;44.87;42.17;;;;;;;;;;5042687;28;20072;-64
2023/05/31 11:55:10;;;;;;;38.57;36.47;;;;;;;;;;5042547;28;20247;-64
2023/05/31 11:57:44;;;;;;;39.27;37.27;;;;;;;;;;5042265;28;20120;-65
2023/05/31 12:00:13;;;;;;;40.00;37.75;;;;;;;;;;5042092;28;20108;-66
2023/05/31 12:02:42;;;;;;;40.57;38.40;;;;;;;;;;5041328;28;20102;-64
2023/05/31 12:05:11;;;;;;;40.63;38.43;;;;;;;;;;5041371;28;20049;-64
2023/05/31 12:07:36;;;;;;;41.43;39.23;;;;;;;;;;5042532;28;20061;-63
2023/05/31 12:10:04;;;;;;;37.63;35.70;;;;;;;;;;5007587;28;20118;-64
2023/05/31 12:12:30;;;;;;;38.10;36.13;;;;;;;;;;5041961;28;20041;-65
2023/05/31 12:14:56;;;;;;;38.70;36.73;;;;;;;;;;5042027;28;20032;-64
2023/05/31 12:17:21;;;;;;;43.47;41.13;;;;;;;;;;5041650;28;20086;-64
2023/05/31 12:19:47;;;;;;;36.63;34.60;;;;;;;;;;5042198;28;20148;-63
2023/05/31 12:22:12;;;;;;;39.33;37.17;;;;;;;;;;5022004;28;20626;-63
2023/05/31 12:24:47;;;;;;;41.07;38.97;;;;;;;;;;5021642;28;20037;-63
2023/05/31 12:27:13;;;;;;;37.67;35.78;;;;;;;;;;5043023;28;20041;-63
2023/05/31 12:29:39;;;;;;;43.90;41.53;;;;;;;;;;5040376;28;20059;-63
2023/05/31 12:32:05;;;;;;;39.17;37.00;;;;;;;;;;5041416;28;20112;-63
2023/05/31 12:34:35;;;;;;;41.77;39.57;;;;;;;;;;5041834;28;20395;-62
2023/05/31 12:37:07;;;;;;;40.03;37.83;;;;;;;;;;5042785;28;20050;-64
2023/05/31 12:39:33;;;;;;;42.33;40.13;;;;;;;;;;5041376;28;20486;-64
2023/05/31 12:42:00;;;;;;;45.87;43.47;;;;;;;;;;5042346;28;20037;-64
2023/05/31 12:44:26;;;;;;;47.47;44.87;;;;;;;;;;5041422;28;20386;-64
2023/05/31 12:46:51;;;;;;;50.40;47.40;;;;;;;;;;5040661;28;20039;-65
2023/05/31 12:49:23;;;;;;;40.90;38.77;;;;;;;;;;5040861;28;20029;-64
2023/05/31 12:51:59;;;;;;;46.47;43.73;;;;;;;;;;5040204;28;20037;-65
2023/05/31 12:54:26;;;;;;;41.30;39.07;;;;;;;;;;5041771;28;20109;-63
2023/05/31 12:56:52;;;;;;;43.90;41.27;;;;;;;;;;5042217;28;20025;-66
2023/05/31 12:59:18;;;;;;;43.83;41.47;;;;;;;;;;5042365;28;20444;-65
2023/05/31 13:01:43;;;;;;;44.90;42.30;;;;;;;;;;5021418;28;20029;-66
2023/05/31 13:04:10;;;;;;;43.83;41.47;;;;;;;;;;5041718;28;20036;-67
2023/05/31 13:06:36;;;;;;;41.53;39.53;;;;;;;;;;5042221;28;20039;-66
2023/05/31 13:09:04;;;;;;;42.33;40.07;;;;;;;;;;5040924;28;20518;-66
2023/05/31 13:11:31;;;;;;;39.40;37.30;;;;;;;;;;5039802;28;20024;-66
2023/05/31 13:13:56;;;;;;;44.20;41.97;;;;;;;;;;5040118;28;20028;-64
2023/05/31 13:16:23;;;;;;;48.67;46.30;;;;;;;;;;5041497;28;20495;-61
2023/05/31 13:18:49;;;;;;;43.40;41.27;;;;;;;;;;5021793;28;20060;-63
2023/05/31 13:21:15;;;;;;;44.60;42.40;;;;;;;;;;5039752;28;20029;-64
2023/05/31 13:23:40;;;;;;;45.77;43.53;;;;;;;;;;5041605;28;20055;-64
2023/05/31 13:26:06;;;;;;;47.30;44.77;;;;;;;;;;5040417;28;20418;-64
2023/05/31 13:28:31;;;;;;;47.83;45.47;;;;;;;;;;5041158;28;20037;-63
2023/05/31 13:30:57;;;;;;;48.30;45.77;;;;;;;;;;5041608;28;20467;-63
2023/05/31 13:33:25;;;;;;;44.00;41.73;;;;;;;;;;5039974;28;20104;-63
2023/05/31 13:35:50;;;;;;;48.00;45.70;;;;;;;;;;5040906;28;20095;-63
2023/05/31 13:38:16;;;;;;;49.70;47.20;;;;;;;;;;5039074;28;20033;-66
2023/05/31 13:40:42;;;;;;;49.40;46.63;;;;;;;;;;5038599;28;20142;-63
2023/05/31 13:43:08;;;;;;;48.60;46.10;;;;;;;;;;5041235;28;20045;-63
2023/05/31 13:45:33;;;;;;;50.83;48.17;;;;;;;;;;5040201;28;20047;-69
2023/05/31 13:47:59;;;;;;;50.63;47.97;;;;;;;;;;5039697;28;20062;-64
2023/05/31 13:50:24;;;;;;;48.27;45.77;;;;;;;;;;5039020;28;20055;-61
2023/05/31 13:52:50;;;;;;;46.50;44.20;;;;;;;;;;5040057;28;20043;-63
2023/05/31 13:55:16;;;;;;;49.40;47.13;;;;;;;;;;5039439;28;20440;-61
2023/05/31 13:57:41;;;;;;;52.27;49.60;;;;;;;;;;5039387;28;20055;-60
2023/05/31 14:00:07;;;;;;;48.73;46.13;;;;;;;;;;5038972;28;20042;-60
2023/05/31 14:02:35;;;;;;;50.60;48.10;;;;;;;;;;5039104;28;20084;-60
2023/05/31 14:05:03;;;;;;;50.83;48.00;;;;;;;;;;5039525;28;20056;-61
2023/05/31 14:07:29;;;;;;;47.00;44.60;;;;;;;;;;5039883;28;20554;-61
2023/05/31 14:09:55;;;;;;;47.47;44.93;;;;;;;;;;5022030;28;20061;-62
2023/05/31 14:12:20;;;;;;;46.70;44.40;;;;;;;;;;5040621;28;20116;-62
2023/05/31 14:14:45;;;;;;;47.93;45.50;;;;;;;;;;5039603;28;20033;-61
2023/05/31 14:17:11;;;;;;;45.90;43.60;;;;;;;;;;5040868;28;20043;-61